Details for All Nippon Airways at RJOO




Go Back


Latest METAR
Local Time

RJOO 241100Z 35011KT 9999 FEW020 SCT/// 07/00 Q1026

24/02/2018, 22:34:14

Description
Results
All Nippon Airways Logo
Number of Pilots based at RJOO
0 Pilots Based here
Number of All Nippon Airways Flights Departed from RJOO
0 Flights Departed
Number of All Nippon Airways Flights Arrived at RJOO
0 Flights Arrived
Number of All Nippon Airways Schedules Departing from RJOO
53 Schedules
Number of All Nippon Airways Schedules Arriving at RJOO
54 Schedules
Number of All Nippon Airways Schedules Departing from RJOO availible today
53 Schedules Today
Number of All Nippon Airways Schedules Arriving at RJOO availible today
54 Schedules Today
Average Landing Rate at RJOO
0 fpm
All Nippon Airways Average Landing Rate at RJOO
0 fpm
Total Fuel Purchased at RJOO by All Nippon Airways
0.00 kgs / 0.00 lbs

Pilots Based at RJOO


Pilot ID
Pilot Name
Pilot Rank
No. of Flights
No. of Flying Hours
There are no pilots assigned to this hub!   Will you be the first?
Content